• Join FlightAware (Why Join?)
  • Login
  • US Flag 
06:52PM EDT


 

Airport Tracker/Info


-or-


 

Live Flight TrackerFlight Track Log ✈ ASA250 ✈ 29-Apr-2013 ✈ KLAX - MMMX / MEX

Flight Track Log - Related Links

Times and Time Zones

All times are in EDT time to prevent confusion due to time zone crossing. See the ASA250 flight status page for this flight to view local times or setup timezone preferences in your user account.

Time Position Orientation Groundspeed Altitude Reporting Facility
EDT Latitude Longitude Course Direction KTS MPH feet Rate Location/Type
11:23AM 33.9333 -118.4500 263° West 185 213 1,800  Level Southern California TRACON
11:23AM 33.9317 -118.4672 263° West 193 222 2,200 1,020 Climbing Los Angeles Center
11:24AM 33.8922 -118.5369 236° Southwest 252 290 3,300 1,260 Climbing Los Angeles Center
11:26AM 33.8319 -118.5633 200° South 270 311 4,900 2,460 Climbing Los Angeles Center
11:27AM 33.7414 -118.5492 173° South 277 319 8,400 2,820 Climbing Los Angeles Center
11:28AM 33.6842 -118.4933 141° Southeast 299 344 10,800 2,040 Climbing Los Angeles Center
11:29AM 33.6608 -118.3900 105° East 326 375 12,700 2,040 Climbing Los Angeles Center
11:30AM 33.6419 -118.2789 102° East 348 400 15,100 2,460 Climbing Los Angeles Center
11:31AM 33.6219 -118.1400 100° East 359 413 17,900 2,340 Climbing Los Angeles Center
11:32AM 33.6039 -118.0183 100° East 369 425 20,000 1,980 Climbing Los Angeles Center
11:33AM 33.5850 -117.8928 100° East 381 438 22,100 1,440 Climbing Los Angeles Center
11:34AM 33.5642 -117.7619 101° East 395 455 23,000 480 Climbing Los Angeles Center
11:35AM 33.5389 -117.6022 101° East 406 467 23,100 360 Climbing Los Angeles Center
11:36AM 33.5131 -117.4636 103° East 424 488 23,800 960 Climbing Los Angeles Center
11:37AM 33.4575 -117.3242 115° Southeast 459 528 25,200 1,320 Climbing Los Angeles Center
11:38AM 33.4058 -117.1814 113° Southeast 466 536 26,600 1,440 Climbing Los Angeles Center
11:39AM 33.3603 -117.0261 109° East 473 544 28,200 1,680 Climbing Los Angeles Center
11:40AM 33.3158 -116.8789 110° East 471 542 30,100 1,680 Climbing Los Angeles Center
11:41AM 33.2728 -116.7369 110° East 458 527 31,700 1,200 Climbing Los Angeles Center
11:42AM 33.2272 -116.5942 111° Southeast 457 526 32,700 1,020 Climbing Los Angeles Center
11:43AM 33.1822 -116.4486 110° East 465 535 33,900 1,080 Climbing Los Angeles Center
11:44AM 33.1278 -116.2775 111° Southeast 455 524 35,000 480 Climbing Los Angeles Center
11:45AM 33.0828 -116.1342 111° Southeast 456 525 35,000  Level Los Angeles Center
11:46AM 33.0294 -115.9969 115° Southeast 453 521 35,000  Level Los Angeles Center
11:47AM 32.9611 -115.8681 122° Southeast 456 525 35,000  Level Los Angeles Center
11:48AM 32.8953 -115.7400 121° Southeast 453 521 35,000  Level Los Angeles Center
11:49AM 32.8278 -115.6122 122° Southeast 455 524 35,000  Level Los Angeles Center
11:50AM 32.7614 -115.4847 122° Southeast 454 522 35,000  Level Los Angeles Center
11:51AM 32.6806 -115.3317 122° Southeast 455 524 35,000  Level Los Angeles Center
11:53AM 32.5977 -115.1929 133° Southeast  Level FlightAware Approximate
12:00PM 31.9991 -114.4508 133° Southeast  Level FlightAware Approximate
12:01PM 31.9133 -114.3455 134° Southeast  Level FlightAware Approximate
12:02PM 31.8273 -114.2405 134° Southeast  Level FlightAware Approximate
12:03PM 31.7413 -114.1357 134° Southeast  Level FlightAware Approximate
12:04PM 31.6552 -114.0310 134° Southeast  Level FlightAware Approximate
12:05PM 31.5690 -113.9266 134° Southeast  Level FlightAware Approximate
12:06PM 31.4827 -113.8223 134° Southeast  Level FlightAware Approximate
12:07PM 31.3963 -113.7183 134° Southeast  Level FlightAware Approximate
12:08PM 31.3099 -113.6144 134° Southeast  Level FlightAware Approximate
12:09PM 31.2233 -113.5107 134° Southeast  Level FlightAware Approximate
12:10PM 31.1367 -113.4072 134° Southeast  Level FlightAware Approximate
12:11PM 31.0500 -113.3039 134° Southeast  Level FlightAware Approximate
12:12PM 30.9632 -113.2008 134° Southeast  Level FlightAware Approximate
12:13PM 30.8763 -113.0979 135° Southeast  Level FlightAware Approximate
12:14PM 30.7894 -112.9952 135° Southeast  Level FlightAware Approximate
12:15PM 30.7023 -112.8926 135° Southeast  Level FlightAware Approximate
12:16PM 30.6152 -112.7903 135° Southeast  Level FlightAware Approximate
12:17PM 30.5280 -112.6881 135° Southeast  Level FlightAware Approximate
12:18PM 30.4408 -112.5861 135° Southeast  Level FlightAware Approximate
12:19PM 30.3534 -112.4842 135° Southeast  Level FlightAware Approximate
12:20PM 30.2660 -112.3826 135° Southeast  Level FlightAware Approximate
12:21PM 30.1785 -112.2811 135° Southeast  Level FlightAware Approximate
12:22PM 30.0909 -112.1798 135° Southeast  Level FlightAware Approximate
12:23PM 30.0033 -112.0787 135° Southeast  Level FlightAware Approximate
12:24PM 29.9155 -111.9778 135° Southeast  Level FlightAware Approximate
12:25PM 29.8277 -111.8770 135° Southeast  Level FlightAware Approximate
12:26PM 29.7398 -111.7765 135° Southeast  Level FlightAware Approximate
12:27PM 29.6519 -111.6761 135° Southeast  Level FlightAware Approximate
12:28PM 29.5639 -111.5758 135° Southeast  Level FlightAware Approximate
12:29PM 29.4757 -111.4758 135° Southeast  Level FlightAware Approximate
12:30PM 29.3876 -111.3759 135° Southeast  Level FlightAware Approximate
12:31PM 29.2993 -111.2762 135° Southeast  Level FlightAware Approximate
12:32PM 29.2110 -111.1767 135° Southeast  Level FlightAware Approximate
12:33PM 29.1225 -111.0773 136° Southeast  Level FlightAware Approximate
12:34PM 29.0352 -110.9769 134° Southeast  Level FlightAware Approximate
12:35PM 28.9487 -110.8755 134° Southeast  Level FlightAware Approximate
12:36PM 28.8620 -110.7744 134° Southeast  Level FlightAware Approximate
12:37PM 28.7754 -110.6734 134° Southeast  Level FlightAware Approximate
12:38PM 28.6886 -110.5726 134° Southeast  Level FlightAware Approximate
12:39PM 28.6018 -110.4719 134° Southeast  Level FlightAware Approximate
12:40PM 28.5149 -110.3715 135° Southeast  Level FlightAware Approximate
12:41PM 28.4279 -110.2711 135° Southeast  Level FlightAware Approximate
12:42PM 28.3408 -110.1710 135° Southeast  Level FlightAware Approximate
12:43PM 28.2537 -110.0710 135° Southeast  Level FlightAware Approximate
12:44PM 28.1665 -109.9712 135° Southeast  Level FlightAware Approximate
12:45PM 28.0792 -109.8715 135° Southeast  Level FlightAware Approximate
12:46PM 27.9918 -109.7720 135° Southeast  Level FlightAware Approximate
12:47PM 27.9044 -109.6727 135° Southeast  Level FlightAware Approximate
12:48PM 27.8169 -109.5735 135° Southeast  Level FlightAware Approximate
12:49PM 27.7305 -109.4732 133° Southeast  Level FlightAware Approximate
12:50PM 27.6457 -109.3713 133° Southeast  Level FlightAware Approximate
12:51PM 27.5608 -109.2695 133° Southeast  Level FlightAware Approximate
12:52PM 27.4746 -109.1693 135° Southeast  Level FlightAware Approximate
12:53PM 27.3869 -109.0707 135° Southeast  Level FlightAware Approximate
12:54PM 27.2986 -108.9729 135° Southeast  Level FlightAware Approximate
12:55PM 27.2102 -108.8753 136° Southeast  Level FlightAware Approximate
12:56PM 27.1217 -108.7779 136° Southeast  Level FlightAware Approximate
12:57PM 27.0331 -108.6806 136° Southeast  Level FlightAware Approximate
12:58PM 26.9445 -108.5835 136° Southeast  Level FlightAware Approximate
12:59PM 26.8558 -108.4865 136° Southeast  Level FlightAware Approximate
01:00PM 26.7671 -108.3897 136° Southeast  Level FlightAware Approximate
01:01PM 26.6825 -108.2890 125° Southeast  Level FlightAware Approximate
01:02PM 26.6107 -108.1760 125° Southeast  Level FlightAware Approximate
01:03PM 26.5389 -108.0632 125° Southeast  Level FlightAware Approximate
01:04PM 26.4670 -107.9505 125° Southeast  Level FlightAware Approximate
01:05PM 26.3934 -107.8392 126° Southeast  Level FlightAware Approximate
01:06PM 26.3198 -107.7280 126° Southeast  Level FlightAware Approximate
01:07PM 26.2461 -107.6170 127° Southeast  Level FlightAware Approximate
01:08PM 26.1723 -107.5062 127° Southeast  Level FlightAware Approximate
01:09PM 26.0984 -107.3954 127° Southeast  Level FlightAware Approximate
01:10PM 26.0244 -107.2848 127° Southeast  Level FlightAware Approximate
01:11PM 25.9503 -107.1744 127° Southeast  Level FlightAware Approximate
01:12PM 25.8762 -107.0641 127° Southeast  Level FlightAware Approximate
01:13PM 25.8031 -106.9529 126° Southeast  Level FlightAware Approximate
01:14PM 25.7302 -106.8417 126° Southeast  Level FlightAware Approximate
01:15PM 25.6572 -106.7307 126° Southeast  Level FlightAware Approximate
01:16PM 25.5841 -106.6198 126° Southeast  Level FlightAware Approximate
01:17PM 25.5109 -106.5090 126° Southeast  Level FlightAware Approximate
01:18PM 25.4377 -106.3984 126° Southeast  Level FlightAware Approximate
01:19PM 25.3636 -106.2884 127° Southeast  Level FlightAware Approximate
01:20PM 25.2893 -106.1788 127° Southeast  Level FlightAware Approximate
01:21PM 25.2148 -106.0694 127° Southeast  Level FlightAware Approximate
01:22PM 25.1402 -105.9601 127° Southeast  Level FlightAware Approximate
01:23PM 25.0631 -105.8531 129° Southeast  Level FlightAware Approximate
01:24PM 24.9856 -105.7465 129° Southeast  Level FlightAware Approximate
01:25PM 24.9080 -105.6400 129° Southeast  Level FlightAware Approximate
01:26PM 24.8314 -105.5327 127° Southeast  Level FlightAware Approximate
01:27PM 24.7560 -105.4244 127° Southeast  Level FlightAware Approximate
01:28PM 24.6805 -105.3163 128° Southeast  Level FlightAware Approximate
01:29PM 24.6049 -105.2084 128° Southeast  Level FlightAware Approximate
01:30PM 24.5292 -105.1005 128° Southeast  Level FlightAware Approximate
01:31PM 24.4535 -104.9928 128° Southeast  Level FlightAware Approximate
01:32PM 24.3777 -104.8852 128° Southeast  Level FlightAware Approximate
01:33PM 24.3018 -104.7778 128° Southeast  Level FlightAware Approximate
01:34PM 24.2258 -104.6705 128° Southeast  Level FlightAware Approximate
01:35PM 24.1498 -104.5633 128° Southeast  Level FlightAware Approximate
01:36PM 24.0755 -104.4548 126° Southeast  Level FlightAware Approximate
01:37PM 24.0024 -104.3452 126° Southeast  Level FlightAware Approximate
01:38PM 23.9294 -104.2357 126° Southeast  Level FlightAware Approximate
01:39PM 23.8577 -104.1253 125° Southeast  Level FlightAware Approximate
01:40PM 23.7862 -104.0147 125° Southeast  Level FlightAware Approximate
01:41PM 23.7146 -103.9043 125° Southeast  Level FlightAware Approximate
01:42PM 23.6430 -103.7939 125° Southeast  Level FlightAware Approximate
01:43PM 23.5713 -103.6837 125° Southeast  Level FlightAware Approximate
01:44PM 23.4988 -103.5742 127° Southeast  Level FlightAware Approximate
01:45PM 23.4240 -103.4665 127° Southeast  Level FlightAware Approximate
01:46PM 23.3492 -103.3590 127° Southeast  Level FlightAware Approximate
01:47PM 23.2743 -103.2515 127° Southeast  Level FlightAware Approximate
01:48PM 23.1993 -103.1442 127° Southeast  Level FlightAware Approximate
01:49PM 23.1244 -103.0369 126° Southeast  Level FlightAware Approximate
01:50PM 23.0508 -102.9286 126° Southeast  Level FlightAware Approximate
01:51PM 22.9771 -102.8205 127° Southeast  Level FlightAware Approximate
01:52PM 22.9033 -102.7125 127° Southeast  Level FlightAware Approximate
01:53PM 22.8198 -102.6135 135° Southeast  Level FlightAware Approximate
01:54PM 22.7327 -102.5179 135° Southeast  Level FlightAware Approximate
01:55PM 22.6456 -102.4225 135° Southeast  Level FlightAware Approximate
01:56PM 22.5584 -102.3272 135° Southeast  Level FlightAware Approximate
01:57PM 22.4712 -102.2320 135° Southeast  Level FlightAware Approximate
01:58PM 22.3839 -102.1369 135° Southeast  Level FlightAware Approximate
01:59PM 22.2967 -102.0395 134° Southeast  Level FlightAware Approximate
02:00PM 22.2102 -101.9415 134° Southeast  Level FlightAware Approximate
02:01PM 22.1236 -101.8436 134° Southeast  Level FlightAware Approximate
02:02PM 22.0370 -101.7458 134° Southeast  Level FlightAware Approximate
02:03PM 21.9503 -101.6482 134° Southeast  Level FlightAware Approximate
02:04PM 21.8636 -101.5506 134° Southeast  Level FlightAware Approximate
02:05PM 21.7769 -101.4531 134° Southeast  Level FlightAware Approximate
02:06PM 21.6901 -101.3558 135° Southeast  Level FlightAware Approximate
02:07PM 21.6019 -101.2599 135° Southeast  Level FlightAware Approximate
02:08PM 21.5138 -101.1641 135° Southeast  Level FlightAware Approximate
02:09PM 21.4256 -101.0684 135° Southeast  Level FlightAware Approximate
02:10PM 21.3373 -100.9728 135° Southeast  Level FlightAware Approximate
02:11PM 21.2490 -100.8773 135° Southeast  Level FlightAware Approximate
02:12PM 21.1606 -100.7820 135° Southeast  Level FlightAware Approximate
02:13PM 21.0721 -100.6868 135° Southeast  Level FlightAware Approximate
02:14PM 20.9835 -100.5918 135° Southeast  Level FlightAware Approximate
02:15PM 20.8949 -100.4969 135° Southeast  Level FlightAware Approximate
02:16PM 20.8111 -100.3972 131° Southeast  Level FlightAware Approximate
02:17PM 20.7152 -100.3122 132° Southeast  Level FlightAware Approximate
02:18PM 20.6314 -100.2127 118° Southeast  Level FlightAware Approximate
02:19PM 20.5541 -100.1082 132° Southeast  Level FlightAware Approximate
02:20PM 20.4763 -100.0033 127° Southeast  Level FlightAware Approximate
02:21PM 20.4003 -99.8970 127° Southeast  Level FlightAware Approximate
02:22PM 20.3213 -99.7932 130° Southeast  Level FlightAware Approximate
02:23PM 20.2401 -99.6914 130° Southeast  Level FlightAware Approximate
02:24PM 20.1588 -99.5898 130° Southeast  Level FlightAware Approximate
02:25PM 20.0774 -99.4882 130° Southeast  Level FlightAware Approximate
02:26PM 20.0000 -99.3834 125° Southeast  Level FlightAware Approximate
02:27PM 19.9286 -99.2739 118° Southeast  Level FlightAware Approximate
02:28PM 19.8486 -99.1722 133° Southeast  Level FlightAware Approximate
02:29PM 19.7688 -99.0698 125° Southeast  Level FlightAware Approximate
02:30PM 19.6710 -99.0322 193° South  Level FlightAware Approximate
02:31PM 19.5464 -99.0407 191° South  Level FlightAware Approximate
02:32PM 19.4363 -99.0721 191° South  Level Estimated
02:33PM 19.4363 -99.0721 191° South  Level Estimated
02:34PM 19.4363 -99.0721 191° South  Level Estimated